createdAt,value
2018-05-06T00:02:19.536Z,46.80
2018-05-06T00:04:47.199Z,46.90
2018-05-06T00:07:14.830Z,47.10
2018-05-06T00:09:42.474Z,47.00
2018-05-06T00:12:10.188Z,47.10
2018-05-06T00:14:37.937Z,47.10
2018-05-06T00:17:05.560Z,47.20
2018-05-06T00:19:33.985Z,47.30
2018-05-06T00:22:01.597Z,47.20
2018-05-06T00:24:30.004Z,47.30
2018-05-06T00:26:57.630Z,47.30
2018-05-06T00:29:25.332Z,47.50
2018-05-06T00:31:52.950Z,47.30
2018-05-06T00:34:21.366Z,47.40
2018-05-06T00:36:49.023Z,47.40
2018-05-06T00:39:16.677Z,47.70
2018-05-06T00:41:45.113Z,47.60
2018-05-06T00:44:12.868Z,47.50
2018-05-06T00:46:40.490Z,47.60
2018-05-06T00:49:08.137Z,47.50
2018-05-06T00:51:35.767Z,47.40
2018-05-06T00:54:15.594Z,47.60
2018-05-06T00:56:43.204Z,47.40
2018-05-06T00:59:11.625Z,48.30
2018-05-06T01:01:39.228Z,47.70
2018-05-06T01:04:06.839Z,47.60
2018-05-06T01:06:34.479Z,47.80
2018-05-06T01:09:02.096Z,47.70
2018-05-06T01:11:30.038Z,47.60
2018-05-06T01:13:57.654Z,47.60
2018-05-06T01:16:26.085Z,47.90
2018-05-06T01:18:53.754Z,47.80
2018-05-06T01:21:21.414Z,47.90
2018-05-06T01:23:49.279Z,48.00
2018-05-06T01:26:16.928Z,48.10
2018-05-06T01:28:44.555Z,48.10
2018-05-06T01:31:12.970Z,48.20
2018-05-06T01:33:40.572Z,48.10
2018-05-06T01:36:08.212Z,48.00
2018-05-06T01:38:35.824Z,48.20
2018-05-06T01:41:04.228Z,48.10
2018-05-06T01:43:31.841Z,48.10
2018-05-06T01:46:00.254Z,48.20
2018-05-06T01:48:27.857Z,48.10
2018-05-06T01:50:55.512Z,48.10
2018-05-06T01:53:23.136Z,48.20
2018-05-06T01:55:50.741Z,48.20
2018-05-06T01:58:18.384Z,48.40
2018-05-06T02:00:46.020Z,48.40
2018-05-06T02:03:13.666Z,48.50
2018-05-06T02:05:42.101Z,48.60
2018-05-06T02:08:09.751Z,48.50
2018-05-06T02:10:37.357Z,48.70
2018-05-06T02:13:05.202Z,48.80
2018-05-06T02:15:33.009Z,48.70
2018-05-06T02:18:01.408Z,48.70
2018-05-06T02:20:29.065Z,48.70
2018-05-06T02:22:56.707Z,48.70
2018-05-06T02:25:25.088Z,48.80
2018-05-06T02:27:53.496Z,48.70
2018-05-06T02:30:21.197Z,48.60
2018-05-06T02:32:48.838Z,48.70
2018-05-06T02:35:16.451Z,48.80
2018-05-06T02:37:44.128Z,48.70
2018-05-06T02:40:11.786Z,48.70
2018-05-06T02:42:40.204Z,48.80
2018-05-06T02:45:07.810Z,48.80
2018-05-06T02:47:35.533Z,48.80
2018-05-06T02:50:03.431Z,49.50
2018-05-06T02:52:31.051Z,49.10
2018-05-06T02:54:58.708Z,48.90
2018-05-06T02:57:26.319Z,49.00
2018-05-06T02:59:53.960Z,49.20
2018-05-06T03:02:21.587Z,48.90
2018-05-06T03:04:49.240Z,49.10
2018-05-06T03:07:16.854Z,49.10
2018-05-06T03:09:44.502Z,49.20
2018-05-06T03:12:12.126Z,49.10
2018-05-06T03:14:39.763Z,49.30
2018-05-06T03:17:08.202Z,49.70
2018-05-06T03:19:35.833Z,49.60
2018-05-06T03:22:03.450Z,49.70
2018-05-06T03:24:32.604Z,49.30
2018-05-06T03:27:01.219Z,49.30
2018-05-06T03:29:28.886Z,48.90
2018-05-06T03:31:56.507Z,49.40
2018-05-06T03:34:24.141Z,49.40
2018-05-06T03:36:52.529Z,49.60
2018-05-06T03:39:20.172Z,49.40
2018-05-06T03:41:48.554Z,49.70
2018-05-06T03:44:16.969Z,49.70
2018-05-06T03:46:44.577Z,49.60
2018-05-06T03:49:12.418Z,49.60
2018-05-06T03:51:40.035Z,49.50
2018-05-06T03:54:08.427Z,49.50
2018-05-06T03:59:46.703Z,49.60
2018-05-06T04:05:08.944Z,49.90
2018-05-06T04:07:36.527Z,49.90
2018-05-06T04:10:04.146Z,49.90
2018-05-06T04:12:31.730Z,49.70
2018-05-06T04:14:59.310Z,49.80
2018-05-06T04:17:27.691Z,49.90
2018-05-06T04:19:55.286Z,49.80
2018-05-06T04:22:23.667Z,50.20
2018-05-06T04:24:51.286Z,50.10
2018-05-06T04:27:18.892Z,50.40
2018-05-06T04:29:46.484Z,50.50
2018-05-06T04:32:14.091Z,50.50
2018-05-06T04:34:42.447Z,51.00
2018-05-06T04:37:10.077Z,50.80
2018-05-06T04:39:37.685Z,50.80
2018-05-06T04:42:05.274Z,51.00
2018-05-06T04:44:32.895Z,51.10
2018-05-06T04:47:00.478Z,51.30
2018-05-06T04:49:28.854Z,51.60
2018-05-06T04:51:57.202Z,51.60
2018-05-06T04:54:24.818Z,51.40
2018-05-06T04:56:52.403Z,51.80
2018-05-06T04:59:20.014Z,51.50
2018-05-06T05:01:48.365Z,51.80
2018-05-06T05:04:15.973Z,51.80
2018-05-06T05:06:43.559Z,51.60
2018-05-06T05:09:11.165Z,51.50
2018-05-06T05:11:38.758Z,51.50
2018-05-06T05:14:06.456Z,51.50
2018-05-06T05:16:34.076Z,51.60
2018-05-06T05:19:01.679Z,52.00
2018-05-06T05:21:29.290Z,52.70
2018-05-06T05:23:57.645Z,53.00
2018-05-06T05:26:25.262Z,53.00
2018-05-06T05:28:52.851Z,53.00
2018-05-06T05:31:20.481Z,53.70
2018-05-06T05:33:48.067Z,53.00
2018-05-06T05:36:15.687Z,53.10
2018-05-06T05:38:43.270Z,53.30
2018-05-06T05:41:10.891Z,53.20
2018-05-06T05:43:39.254Z,53.30
2018-05-06T05:46:06.866Z,53.30
2018-05-06T05:48:34.455Z,53.10
2018-05-06T05:51:02.094Z,52.70
2018-05-06T05:53:29.691Z,52.80
2018-05-06T05:55:58.052Z,52.10
2018-05-06T05:58:25.675Z,52.10
2018-05-06T06:00:53.266Z,51.90
2018-05-06T06:03:20.874Z,51.60
2018-05-06T06:05:49.222Z,51.00
2018-05-06T06:08:16.830Z,51.00
2018-05-06T06:10:44.423Z,50.90
2018-05-06T06:13:12.050Z,51.20
2018-05-06T06:15:39.811Z,50.90
2018-05-06T06:18:07.302Z,50.60
2018-05-06T06:20:34.891Z,50.30
2018-05-06T06:23:02.495Z,50.50
2018-05-06T06:25:30.106Z,50.40
2018-05-06T06:27:58.463Z,50.60
2018-05-06T06:30:26.082Z,50.10
2018-05-06T06:32:54.504Z,49.30
2018-05-06T06:35:22.095Z,49.30
2018-05-06T06:37:49.690Z,49.20
2018-05-06T06:40:17.282Z,49.00
2018-05-06T06:42:44.906Z,49.10
2018-05-06T06:45:13.256Z,49.40
2018-05-06T06:47:40.907Z,49.40
2018-05-06T06:50:08.498Z,49.20
2018-05-06T06:52:36.871Z,49.20
2018-05-06T06:55:05.250Z,49.00
2018-05-06T06:57:33.606Z,48.60
2018-05-06T07:00:01.232Z,48.60
2018-05-06T07:02:28.829Z,48.20
2018-05-06T07:04:57.253Z,48.30
2018-05-06T07:07:24.855Z,48.20
2018-05-06T07:09:52.462Z,48.30
2018-05-06T07:12:20.819Z,47.80
2018-05-06T07:14:49.217Z,47.50
2018-05-06T07:17:17.641Z,47.60
2018-05-06T07:19:45.230Z,47.50
2018-05-06T07:22:12.846Z,46.90
2018-05-06T07:24:40.440Z,46.90
2018-05-06T07:27:08.062Z,47.20
2018-05-06T07:29:35.655Z,46.90
2018-05-06T07:32:03.265Z,46.70
2018-05-06T07:34:31.617Z,46.60
2018-05-06T07:36:59.238Z,46.60
2018-05-06T07:39:26.828Z,47.30
2018-05-06T07:41:54.465Z,46.50
2018-05-06T07:44:22.078Z,46.30
2018-05-06T07:46:50.435Z,46.40
2018-05-06T07:49:18.059Z,47.00
2018-05-06T07:51:45.726Z,46.10
2018-05-06T07:54:13.325Z,45.90
2018-05-06T07:56:40.940Z,45.90
2018-05-06T07:59:08.610Z,45.70
2018-05-06T08:01:37.086Z,45.90
2018-05-06T08:04:04.670Z,45.90
2018-05-06T08:06:32.286Z,45.80
2018-05-06T08:08:59.909Z,44.60
2018-05-06T08:11:29.026Z,44.40
2018-05-06T08:13:57.379Z,43.30
2018-05-06T08:16:25.016Z,43.20
2018-05-06T08:18:52.603Z,43.50
2018-05-06T08:21:20.230Z,43.50
2018-05-06T08:23:47.814Z,42.60
2018-05-06T08:26:16.951Z,42.90
2018-05-06T08:28:44.564Z,42.80
2018-05-06T08:31:12.238Z,42.60
2018-05-06T08:33:39.806Z,43.10
2018-05-06T08:36:07.399Z,42.30
2018-05-06T08:38:34.992Z,42.30
2018-05-06T08:41:02.599Z,42.70
2018-05-06T08:43:30.958Z,41.70
2018-05-06T08:45:58.566Z,41.70
2018-05-06T08:48:26.163Z,42.20
2018-05-06T08:50:53.786Z,42.00
2018-05-06T08:53:21.379Z,41.20
2018-05-06T08:55:48.974Z,40.80
2018-05-06T08:58:17.362Z,41.30
2018-05-06T09:00:45.780Z,40.20
2018-05-06T09:03:13.403Z,40.80
2018-05-06T09:05:41.759Z,40.10
2018-05-06T09:08:09.374Z,40.10
2018-05-06T09:10:36.979Z,39.30
2018-05-06T09:13:05.366Z,39.60
2018-05-06T09:15:32.959Z,39.20
2018-05-06T09:18:00.571Z,38.70
2018-05-06T09:20:28.430Z,39.60
2018-05-06T09:22:56.051Z,39.40
2018-05-06T09:25:23.741Z,39.80
2018-05-06T09:27:51.250Z,40.00
2018-05-06T09:30:19.633Z,39.80
2018-05-06T09:32:47.989Z,39.70
2018-05-06T09:35:15.644Z,39.70
2018-05-06T09:37:43.298Z,38.30
2018-05-06T09:40:10.930Z,38.50
2018-05-06T09:42:38.522Z,37.50
2018-05-06T09:45:06.138Z,39.00
2018-05-06T09:47:33.737Z,38.50
2018-05-06T09:50:01.386Z,37.60
2018-05-06T09:52:28.970Z,39.20
2018-05-06T09:54:57.326Z,36.20
2018-05-06T09:57:24.938Z,36.10
2018-05-06T09:59:53.288Z,37.70
2018-05-06T10:02:20.920Z,37.60
2018-05-06T10:04:48.515Z,37.20
2018-05-06T10:07:16.436Z,35.50
2018-05-06T10:09:44.019Z,36.00
2018-05-06T10:12:11.631Z,37.10
2018-05-06T10:14:39.985Z,36.10
2018-05-06T10:17:07.610Z,36.00
2018-05-06T10:19:35.201Z,34.40
2018-05-06T10:22:02.791Z,34.10
2018-05-06T10:24:31.173Z,35.60
2018-05-06T10:26:58.766Z,35.50
2018-05-06T10:29:26.406Z,34.70
2018-05-06T10:31:54.007Z,35.50
2018-05-06T10:34:21.636Z,34.90
2018-05-06T10:36:49.233Z,34.40
2018-05-06T10:39:16.825Z,34.50
2018-05-06T10:41:45.264Z,35.00
2018-05-06T10:44:13.769Z,34.20
2018-05-06T10:46:41.329Z,34.20
2018-05-06T10:49:09.029Z,33.40
2018-05-06T10:51:36.568Z,34.30
2018-05-06T10:54:04.186Z,34.40
2018-05-06T10:56:31.798Z,33.40
2018-05-06T10:59:00.155Z,32.90
2018-05-06T11:01:27.766Z,32.80
2018-05-06T11:03:55.383Z,33.20
2018-05-06T11:06:23.783Z,32.60
2018-05-06T11:08:51.380Z,32.60
2018-05-06T11:11:18.990Z,32.80
2018-05-06T11:13:47.355Z,32.50
2018-05-06T11:16:14.970Z,32.50
2018-05-06T11:18:42.558Z,33.10
2018-05-06T11:21:10.170Z,32.40
2018-05-06T11:23:37.755Z,33.00
2018-05-06T11:26:05.387Z,32.30
2018-05-06T11:28:32.975Z,33.50
2018-05-06T11:31:00.594Z,33.90
2018-05-06T11:33:29.006Z,34.60
2018-05-06T11:35:56.605Z,35.00
2018-05-06T11:38:24.214Z,34.20
2018-05-06T11:40:51.948Z,31.80
2018-05-06T11:43:20.338Z,31.90
2018-05-06T11:45:48.691Z,32.10
2018-05-06T11:48:16.302Z,32.00
2018-05-06T11:50:43.892Z,30.50
2018-05-06T11:53:11.501Z,30.50
2018-05-06T11:55:39.855Z,30.40
2018-05-06T11:58:07.471Z,30.40
2018-05-06T12:00:35.057Z,30.30
2018-05-06T12:03:02.661Z,29.70
2018-05-06T12:05:31.014Z,30.00
2018-05-06T12:07:58.640Z,30.00
2018-05-06T12:10:26.225Z,31.40
2018-05-06T12:12:53.822Z,30.70
2018-05-06T12:15:22.201Z,30.50
2018-05-06T12:17:50.560Z,30.00
2018-05-06T12:20:18.182Z,30.00
2018-05-06T12:22:45.771Z,29.40
2018-05-06T12:25:13.360Z,29.70
2018-05-06T12:27:41.746Z,29.30
2018-05-06T12:30:09.335Z,29.30
2018-05-06T12:32:36.951Z,30.40
2018-05-06T12:35:05.303Z,31.30
2018-05-06T12:37:33.884Z,30.80
2018-05-06T12:40:01.487Z,31.20
2018-05-06T12:42:29.874Z,29.70
2018-05-06T12:44:57.702Z,29.70
2018-05-06T12:47:25.322Z,29.90
2018-05-06T12:49:52.921Z,29.80
2018-05-06T12:52:20.515Z,30.70
2018-05-06T12:54:48.134Z,31.20
2018-05-06T12:57:15.721Z,30.50
2018-05-06T12:59:44.107Z,31.00
2018-05-06T13:02:12.463Z,30.00
2018-05-06T13:04:40.050Z,30.00
2018-05-06T13:07:08.430Z,30.50
2018-05-06T13:09:36.782Z,31.30
2018-05-06T13:12:04.397Z,30.70
2018-05-06T13:14:31.987Z,30.00
2018-05-06T13:16:59.612Z,29.80
2018-05-06T13:19:27.202Z,29.60
2018-05-06T13:21:54.795Z,29.40
2018-05-06T13:24:23.175Z,30.60
2018-05-06T13:26:51.522Z,30.50
2018-05-06T13:29:19.147Z,30.50
2018-05-06T13:31:46.743Z,29.80
2018-05-06T13:34:14.381Z,29.50
2018-05-06T13:36:42.034Z,29.20
2018-05-06T13:39:09.618Z,29.50
2018-05-06T13:41:37.202Z,29.80
2018-05-06T13:44:04.827Z,29.40
2018-05-06T13:46:32.438Z,29.90
2018-05-06T13:49:00.794Z,29.90
2018-05-06T13:51:28.401Z,29.90
2018-05-06T13:53:55.990Z,29.80
2018-05-06T13:56:23.611Z,30.00
2018-05-06T13:58:51.963Z,29.60
2018-05-06T14:01:19.586Z,29.60
2018-05-06T14:03:47.174Z,30.00
2018-05-06T14:06:14.799Z,30.00
2018-05-06T14:08:42.401Z,29.90
2018-05-06T14:11:10.799Z,29.90
2018-05-06T14:13:39.192Z,29.90
2018-05-06T14:16:07.551Z,29.50
2018-05-06T14:18:35.157Z,29.50
2018-05-06T14:21:02.755Z,29.50
2018-05-06T14:23:30.389Z,30.00
2018-05-06T14:25:57.977Z,29.80
2018-05-06T14:28:25.580Z,30.30
2018-05-06T14:30:53.204Z,29.70
2018-05-06T14:33:20.788Z,29.70
2018-05-06T14:35:49.174Z,30.40
2018-05-06T14:38:17.528Z,30.40
2018-05-06T14:40:45.155Z,30.40
2018-05-06T14:43:12.742Z,30.60
2018-05-06T14:45:40.363Z,31.40
2018-05-06T14:48:15.782Z,31.00
2018-05-06T14:50:43.397Z,30.50
2018-05-06T14:53:10.982Z,31.10
2018-05-06T14:55:39.338Z,30.40
2018-05-06T14:58:06.947Z,30.40
2018-05-06T15:00:34.566Z,30.90
2018-05-06T15:03:02.153Z,31.40
2018-05-06T15:05:30.515Z,32.30
2018-05-06T15:07:58.894Z,31.80
2018-05-06T15:10:26.556Z,31.80
2018-05-06T15:12:54.126Z,31.10
2018-05-06T15:15:22.482Z,31.50
2018-05-06T15:17:50.066Z,31.50
2018-05-06T15:20:17.706Z,31.90
2018-05-06T15:22:45.295Z,31.60
2018-05-06T15:25:13.683Z,31.80
2018-05-06T15:27:41.273Z,31.80
2018-05-06T15:30:08.885Z,31.60
2018-05-06T15:32:37.238Z,31.50
2018-05-06T15:35:04.858Z,31.40
2018-05-06T15:37:32.457Z,32.80
2018-05-06T15:40:00.055Z,32.20
2018-05-06T15:42:28.455Z,31.90
2018-05-06T15:44:56.140Z,31.90
2018-05-06T15:47:23.760Z,31.70
2018-05-06T15:49:52.119Z,32.60
2018-05-06T15:52:19.738Z,32.50
2018-05-06T15:54:47.328Z,32.00
2018-05-06T15:57:14.937Z,33.00
2018-05-06T15:59:42.542Z,33.00
2018-05-06T16:05:12.898Z,33.30
2018-05-06T16:07:40.535Z,34.00
2018-05-06T16:10:08.127Z,33.90
2018-05-06T16:12:35.717Z,34.10
2018-05-06T16:15:03.345Z,34.40
2018-05-06T16:17:30.933Z,34.80
2018-05-06T16:19:58.542Z,33.80
2018-05-06T16:22:26.274Z,33.70
2018-05-06T16:24:53.866Z,34.10
2018-05-06T16:27:21.479Z,33.90
2018-05-06T16:29:49.081Z,33.80
2018-05-06T16:32:16.690Z,33.90
2018-05-06T16:34:45.051Z,34.80
2018-05-06T16:37:12.671Z,34.70
2018-05-06T16:39:40.380Z,35.20
2018-05-06T16:42:08.167Z,34.90
2018-05-06T16:44:35.767Z,36.20
2018-05-06T16:47:03.406Z,34.60
2018-05-06T16:49:30.997Z,35.10
2018-05-06T16:51:58.591Z,35.40
2018-05-06T16:54:26.971Z,35.50
2018-05-06T16:56:55.327Z,35.20
2018-05-06T16:59:22.941Z,35.20
2018-05-06T17:01:50.529Z,35.70
2018-05-06T17:04:18.148Z,35.50
2018-05-06T17:06:46.566Z,36.10
2018-05-06T17:09:14.186Z,36.00
2018-05-06T17:11:42.538Z,35.50
2018-05-06T17:14:10.169Z,35.50
2018-05-06T17:16:37.751Z,35.70
2018-05-06T17:19:05.334Z,36.20
2018-05-06T17:21:33.720Z,35.80
2018-05-06T17:24:02.090Z,35.70
2018-05-06T17:26:30.471Z,36.20
2018-05-06T17:28:58.902Z,36.30
2018-05-06T17:31:26.528Z,36.30
2018-05-06T17:33:54.119Z,36.20
2018-05-06T17:36:21.747Z,36.10
2018-05-06T17:38:50.103Z,36.60
2018-05-06T17:41:17.719Z,36.60
2018-05-06T17:43:45.311Z,36.40
2018-05-06T17:46:12.927Z,36.40
2018-05-06T17:48:40.517Z,36.30
2018-05-06T17:51:08.134Z,36.60
2018-05-06T17:53:35.727Z,36.40
2018-05-06T17:56:03.375Z,36.50
2018-05-06T17:58:30.962Z,36.80
2018-05-06T18:00:58.558Z,36.70
2018-05-06T18:03:26.942Z,37.10
2018-05-06T18:05:55.373Z,37.00
2018-05-06T18:08:23.133Z,37.00
2018-05-06T18:10:50.739Z,37.00
2018-05-06T18:13:19.162Z,37.20
2018-05-06T18:15:46.746Z,37.20
2018-05-06T18:18:14.378Z,36.60
2018-05-06T18:20:41.982Z,37.00
2018-05-06T18:23:09.577Z,37.00
2018-05-06T18:25:37.955Z,37.20
2018-05-06T18:28:06.306Z,37.40
2018-05-06T18:30:33.928Z,37.20
2018-05-06T18:33:01.595Z,37.50
2018-05-06T18:35:29.213Z,37.40
2018-05-06T18:37:57.562Z,37.60
2018-05-06T18:40:25.182Z,37.50
2018-05-06T18:42:52.770Z,37.80
2018-05-06T18:45:20.393Z,37.90
2018-05-06T18:47:47.982Z,38.00
2018-05-06T18:50:15.590Z,38.10
2018-05-06T18:52:43.938Z,38.40
2018-05-06T18:55:13.058Z,38.30
2018-05-06T18:57:41.410Z,38.50
2018-05-06T19:00:09.003Z,38.50
2018-05-06T19:02:37.450Z,38.80
2018-05-06T19:05:05.004Z,38.70
2018-05-06T19:07:32.805Z,38.80
2018-05-06T19:10:01.162Z,39.10
2018-05-06T19:12:28.781Z,39.00
2018-05-06T19:14:56.490Z,38.90
2018-05-06T19:17:24.102Z,39.10
2018-05-06T19:19:51.780Z,39.30
2018-05-06T19:22:19.404Z,39.20
2018-05-06T19:24:47.758Z,39.40
2018-05-06T19:27:15.354Z,39.40
2018-05-06T19:29:42.987Z,39.50
2018-05-06T19:32:11.345Z,39.60
2018-05-06T19:34:38.969Z,39.50
2018-05-06T19:37:06.558Z,39.60
2018-05-06T19:39:34.171Z,39.70
2018-05-06T19:42:01.759Z,39.80
2018-05-06T19:44:29.372Z,39.90
2018-05-06T19:46:57.827Z,40.10
2018-05-06T19:49:25.492Z,40.00
2018-05-06T19:51:53.066Z,40.10
2018-05-06T19:54:21.459Z,40.20
2018-05-06T19:56:49.810Z,40.30
2018-05-06T19:59:18.190Z,40.40
2018-05-06T20:01:45.775Z,40.40
2018-05-06T20:04:14.171Z,40.60
2018-05-06T20:06:41.759Z,40.50
2018-05-06T20:09:09.379Z,40.60
2018-05-06T20:11:37.737Z,40.70
2018-05-06T20:14:05.329Z,40.70
2018-05-06T20:16:32.953Z,40.70
2018-05-06T20:19:00.584Z,40.80
2018-05-06T20:21:28.234Z,41.10
2018-05-06T20:23:55.811Z,41.00
2018-05-06T20:26:23.427Z,41.10
2018-05-06T20:28:51.778Z,41.20
2018-05-06T20:31:19.402Z,41.10
2018-05-06T20:33:47.073Z,41.20
2018-05-06T20:36:14.774Z,41.30
2018-05-06T20:38:42.379Z,41.20
2018-05-06T20:41:12.197Z,41.70
2018-05-06T20:43:39.796Z,41.60
2018-05-06T20:46:07.436Z,41.70
2018-05-06T20:48:35.023Z,41.70
2018-05-06T20:51:02.654Z,41.70
2018-05-06T20:53:30.247Z,41.70
2018-05-06T20:55:57.859Z,41.70
2018-05-06T20:58:25.447Z,41.80
2018-05-06T21:00:53.067Z,41.90
2018-05-06T21:03:20.656Z,42.00
2018-05-06T21:05:48.243Z,42.00
2018-05-06T21:08:15.853Z,42.10
2018-05-06T21:10:43.446Z,42.20
2018-05-06T21:13:11.086Z,42.30
2018-05-06T21:15:38.754Z,42.00
2018-05-06T21:18:06.377Z,42.00
2018-05-06T21:20:34.722Z,42.00
2018-05-06T21:23:03.084Z,41.70
2018-05-06T21:25:30.735Z,41.80
2018-05-06T21:27:58.433Z,42.00
2018-05-06T21:30:26.012Z,42.10
2018-05-06T21:32:54.599Z,42.10
2018-05-06T21:35:22.983Z,42.10
2018-05-06T21:37:50.572Z,42.10
2018-05-06T21:40:18.260Z,42.10
2018-05-06T21:42:45.810Z,42.20
2018-05-06T21:45:13.422Z,42.20
2018-05-06T21:47:41.780Z,42.30
2018-05-06T21:50:09.403Z,42.30
2018-05-06T21:52:36.997Z,42.20
2018-05-06T21:55:04.620Z,42.50
2018-05-06T21:57:32.213Z,42.50
2018-05-06T21:59:59.843Z,42.70
2018-05-06T22:02:27.438Z,42.60
2018-05-06T22:04:55.030Z,42.70
2018-05-06T22:07:22.699Z,42.70
2018-05-06T22:09:50.258Z,42.80
2018-05-06T22:12:17.883Z,42.80
2018-05-06T22:14:45.478Z,42.90
2018-05-06T22:17:13.082Z,42.80
2018-05-06T22:19:40.666Z,43.40
2018-05-06T22:22:09.047Z,43.10
2018-05-06T22:24:37.402Z,42.90
2018-05-06T22:27:05.016Z,42.90
2018-05-06T22:29:32.607Z,43.20
2018-05-06T22:32:00.269Z,43.10
2018-05-06T22:34:27.850Z,43.10
2018-05-06T22:36:55.457Z,43.20
2018-05-06T22:39:23.059Z,43.30
2018-05-06T22:41:50.674Z,43.20
2018-05-06T22:44:19.067Z,43.20
2018-05-06T22:46:46.694Z,43.10
2018-05-06T22:49:14.317Z,43.30
2018-05-06T22:51:41.967Z,42.70
2018-05-06T22:54:09.562Z,43.30
2018-05-06T22:56:37.169Z,43.40
2018-05-06T22:59:04.899Z,43.30
2018-05-06T23:01:33.273Z,42.70
2018-05-06T23:04:00.874Z,43.20
2018-05-06T23:06:28.466Z,43.20
2018-05-06T23:08:56.082Z,43.40
2018-05-06T23:11:24.437Z,43.50
2018-05-06T23:13:52.830Z,43.50
2018-05-06T23:16:21.239Z,43.60
2018-05-06T23:18:49.595Z,43.70
2018-05-06T23:21:17.941Z,43.60
2018-05-06T23:23:45.623Z,43.60
2018-05-06T23:26:13.185Z,43.70
2018-05-06T23:28:41.762Z,43.80
2018-05-06T23:31:09.351Z,43.80
2018-05-06T23:33:37.086Z,43.80
2018-05-06T23:36:05.476Z,43.90
2018-05-06T23:38:33.831Z,44.00
2018-05-06T23:41:01.452Z,43.90
2018-05-06T23:43:29.037Z,43.80
2018-05-06T23:45:57.430Z,44.00
2018-05-06T23:48:25.014Z,44.40
2018-05-06T23:50:53.370Z,44.20
2018-05-06T23:53:21.750Z,44.00
2018-05-06T23:55:49.340Z,44.00
2018-05-06T23:58:17.854Z,44.10
